Time;durP1;ratioP1;P1;durP2;ratioP2;P2;SDS_P1;SDS_P2;PMS_P1;PMS_P2;Temp;Humidity;BMP_temperature;BMP_pressure;BME280_temperature;BME280_humidity;BME280_pressure;Samples;Min_cycle;Max_cycle;Signal;HPM_P1;HPM_P2
2023/07/04 00:00:48;;;;;;;13.67;12.20;;;;;;;-143.84;76.63;45073.81;4895466;29;20524;-56
2023/07/04 00:03:15;;;;;;;12.47;11.17;;;;;;;-143.84;76.16;45056.69;4896038;29;20467;-56
2023/07/04 00:05:48;;;;;;;12.37;11.17;;;;;;;-143.84;76.21;45050.97;4895975;29;21030;-56
2023/07/04 00:08:15;;;;;;;12.93;10.70;;;;;;;-143.84;76.66;45062.41;4895625;29;20449;-56
2023/07/04 00:10:44;;;;;;;21.00;13.40;;;;;;;-143.84;76.78;45075.72;4895436;29;20449;-56
2023/07/04 00:13:11;;;;;;;13.23;11.27;;;;;;;-143.84;76.97;45079.53;4895443;29;20547;-56
2023/07/04 00:15:45;;;;;;;12.10;10.93;;;;;;;-143.84;77.15;45068.13;4895077;29;20499;-56
2023/07/04 00:18:12;;;;;;;12.93;11.63;;;;;;;-143.84;76.98;45050.97;4895448;29;20445;-56
2023/07/04 00:20:39;;;;;;;13.77;12.33;;;;;;;-143.84;78.00;45033.84;4895214;29;20969;-56
2023/07/04 00:23:06;;;;;;;14.30;12.30;;;;;;;-143.84;79.18;45045.25;4895221;29;21122;-56
2023/07/04 00:25:34;;;;;;;16.10;12.07;;;;;;;-143.84;81.13;45050.97;4895390;29;20516;-56
2023/07/04 00:28:05;;;;;;;14.00;12.50;;;;;;;-143.84;81.65;45064.31;4895036;29;20491;-56
2023/07/04 00:30:32;;;;;;;16.50;11.77;;;;;;;-143.84;81.81;45068.13;4894920;29;20515;-56
2023/07/04 00:32:59;;;;;;;16.17;12.20;;;;;;;-143.84;81.79;45083.34;4895127;29;21216;-56
2023/07/04 00:35:27;;;;;;;13.87;12.37;;;;;;;-143.84;81.63;45075.72;4895183;29;20451;-56
2023/07/04 00:37:55;;;;;;;13.47;11.13;;;;;;;-143.84;81.12;45050.97;4895051;29;20536;-55
2023/07/04 00:40:23;;;;;;;12.93;11.23;;;;;;;-143.84;80.39;45075.72;4894831;29;20491;-55
2023/07/04 00:42:52;;;;;;;13.57;12.00;;;;;;;-143.84;79.37;45056.69;4894977;29;20804;-56
2023/07/04 00:45:20;;;;;;;17.00;12.37;;;;;;;-143.84;79.07;45079.53;4894899;29;20498;-56
2023/07/04 00:47:53;;;;;;;12.70;11.20;;;;;;;-143.84;78.83;45049.06;4894340;29;20461;-56
2023/07/04 00:50:24;;;;;;;12.10;10.90;;;;;;;-143.84;78.79;45050.97;4894708;29;20512;-56
2023/07/04 00:52:54;;;;;;;12.30;11.07;;;;;;;-143.84;78.90;45062.41;4894437;29;21079;-55
2023/07/04 00:55:22;;;;;;;17.60;10.17;;;;;;;-143.84;78.91;45056.69;4895129;29;20448;-56
2023/07/04 00:57:49;;;;;;;13.67;10.73;;;;;;;-143.84;79.05;45045.25;4894658;29;21017;-56
2023/07/04 01:00:23;;;;;;;14.23;12.37;;;;;;;-143.84;79.07;45041.44;4894673;29;21141;-56
2023/07/04 01:02:53;;;;;;;17.93;11.20;;;;;;;-143.84;79.28;45075.72;4894626;29;20461;-56
2023/07/04 01:05:28;;;;;;;13.07;11.77;;;;;;;-143.84;79.26;45077.63;4894555;29;20897;-56
2023/07/04 01:08:00;;;;;;;13.30;11.13;;;;;;;-143.84;79.31;45081.44;4894329;29;20452;-55
2023/07/04 01:10:32;;;;;;;11.87;10.67;;;;;;;-143.84;79.00;45064.31;4894324;29;20449;-55
2023/07/04 01:13:00;;;;;;;15.23;11.80;;;;;;;-143.84;78.82;45058.59;4894598;29;20488;-56
2023/07/04 01:15:31;;;;;;;12.10;10.90;;;;;;;-143.84;78.65;45089.06;4894299;29;20484;-56
2023/07/04 01:18:00;;;;;;;13.30;12.10;;;;;;;-143.84;79.23;45047.16;4894542;29;21334;-56
2023/07/04 01:20:28;;;;;;;12.20;10.53;;;;;;;-143.84;79.87;45064.31;4894208;29;20448;-55
2023/07/04 01:23:04;;;;;;;12.00;10.90;;;;;;;-143.84;79.94;45043.34;4894143;29;20452;-56
2023/07/04 01:25:41;;;;;;;13.50;12.00;;;;;;;-143.84;79.91;45066.22;4894571;29;20873;-56
2023/07/04 01:28:13;;;;;;;12.93;10.93;;;;;;;-143.84;79.84;45066.22;4894352;29;20465;-56
2023/07/04 01:30:44;;;;;;;21.77;11.67;;;;;;;-143.84;79.48;45071.91;4894420;29;20453;-56
2023/07/04 01:33:13;;;;;;;12.63;11.20;;;;;;;-143.84;79.31;45064.31;4894092;29;20496;-56
2023/07/04 01:35:40;;;;;;;12.87;11.20;;;;;;;-143.84;78.97;45070.00;4894103;29;20450;-56
2023/07/04 01:38:08;;;;;;;13.10;11.80;;;;;;;-143.84;78.85;45056.69;4894274;29;20947;-56
2023/07/04 01:40:35;;;;;;;15.87;11.53;;;;;;;-143.84;78.42;45089.06;4894124;29;21062;-56
2023/07/04 01:43:02;;;;;;;17.17;11.70;;;;;;;-143.84;78.08;45049.06;4893901;29;20456;-55
2023/07/04 01:45:31;;;;;;;12.37;11.20;;;;;;;-143.84;78.14;45056.69;4894258;29;20440;-56
2023/07/04 01:47:58;;;;;;;13.67;11.13;;;;;;;-143.84;78.13;45054.78;4894472;29;20508;-56
2023/07/04 01:50:25;;;;;;;16.57;11.30;;;;;;;-143.84;77.78;45070.00;4894024;29;20464;-56
2023/07/04 01:52:52;;;;;;;16.77;11.97;;;;;;;-143.84;77.78;45064.31;4893985;29;21069;-56
2023/07/04 01:55:19;;;;;;;14.90;11.07;;;;;;;-143.84;77.78;45064.31;4893813;29;20463;-56
2023/07/04 01:57:47;;;;;;;17.73;11.33;;;;;;;-143.84;77.45;45062.41;4893888;29;20939;-55
2023/07/04 02:00:14;;;;;;;13.87;12.20;;;;;;;-143.84;77.75;45073.81;4897084;29;20444;-56
2023/07/04 02:02:43;;;;;;;12.47;11.17;;;;;;;-143.84;78.00;45041.44;4897798;29;20451;-56
2023/07/04 02:05:10;;;;;;;12.37;11.07;;;;;;;-143.84;77.93;45054.78;4897801;29;20531;-56
2023/07/04 02:07:37;;;;;;;17.70;11.70;;;;;;;-143.84;78.21;45068.13;4897857;29;20475;-56
2023/07/04 02:10:05;;;;;;;19.60;11.40;;;;;;;-143.84;77.91;45037.66;4897515;29;20508;-56
2023/07/04 02:12:32;;;;;;;15.23;11.17;;;;;;;-143.84;77.82;45098.56;4897541;29;20434;-56
2023/07/04 02:14:59;;;;;;;12.73;11.40;;;;;;;-143.84;77.66;45092.88;4897287;29;20553;-56
2023/07/04 02:17:26;;;;;;;12.70;11.40;;;;;;;-143.84;77.63;45056.69;4897623;29;20812;-56
2023/07/04 02:19:55;;;;;;;12.60;11.40;;;;;;;-143.84;77.51;45043.34;4897340;29;20885;-55
2023/07/04 02:22:22;;;;;;;13.47;12.17;;;;;;;-143.84;77.43;45077.63;4897511;29;20478;-55
2023/07/04 02:24:49;;;;;;;12.40;11.10;;;;;;;-143.84;77.71;45066.22;4897654;29;20814;-56
2023/07/04 02:27:16;;;;;;;13.93;12.53;;;;;;;-143.84;77.67;45045.25;4897375;29;20504;-55
2023/07/04 02:29:47;;;;;;;13.17;11.73;;;;;;;-143.84;77.63;45083.34;4897599;29;20482;-56
2023/07/04 02:32:14;;;;;;;12.87;11.50;;;;;;;-143.84;77.49;45094.78;4897165;29;20459;-56
2023/07/04 02:34:41;;;;;;;17.80;11.77;;;;;;;-143.84;77.57;45077.63;4897355;29;20579;-56
2023/07/04 02:37:11;;;;;;;21.23;11.70;;;;;;;-143.84;77.59;45052.88;4897359;29;20452;-56
2023/07/04 02:39:38;;;;;;;13.80;11.43;;;;;;;-143.84;77.24;45090.97;4897336;29;20448;-55
2023/07/04 02:42:05;;;;;;;12.90;10.80;;;;;;;-143.84;77.28;45049.06;4896971;29;20456;-56
2023/07/04 02:44:33;;;;;;;12.87;11.07;;;;;;;-143.84;77.25;45052.88;4896923;29;20448;-56
2023/07/04 02:47:00;;;;;;;18.27;11.10;;;;;;;-143.84;77.10;45087.16;4897014;29;20455;-56
2023/07/04 02:49:27;;;;;;;11.00;10.00;;;;;;;-143.84;76.63;45052.88;4896915;29;20448;-56
2023/07/04 02:51:54;;;;;;;14.77;11.10;;;;;;;-143.84;76.69;45041.44;4896879;29;20527;-55
2023/07/04 02:54:22;;;;;;;14.70;10.53;;;;;;;-143.84;76.60;45049.06;4896885;29;20574;-56
2023/07/04 02:56:49;;;;;;;12.27;11.17;;;;;;;-143.84;76.25;45056.69;4897099;29;20488;-55
2023/07/04 02:59:17;;;;;;;12.80;10.40;;;;;;;-143.84;75.98;45047.16;4896909;29;20448;-56
2023/07/04 03:01:44;;;;;;;13.57;10.83;;;;;;;-143.84;75.88;45047.16;4896681;29;20453;-56
2023/07/04 03:04:11;;;;;;;12.10;10.90;;;;;;;-143.84;75.84;45064.31;4896556;29;20454;-56
2023/07/04 03:06:38;;;;;;;13.70;9.90;;;;;;;-143.84;75.64;45052.88;4896583;29;20992;-55
2023/07/04 03:09:05;;;;;;;12.60;10.93;;;;;;;-143.84;75.13;45052.88;4896677;29;20927;-56
2023/07/04 03:11:34;;;;;;;14.90;10.60;;;;;;;-143.84;74.98;45073.81;4895850;29;20450;-56
2023/07/04 03:14:01;;;;;;;15.00;10.37;;;;;;;-143.84;74.72;45075.72;4896314;29;20521;-56
2023/07/04 03:16:28;;;;;;;11.27;9.90;;;;;;;-143.84;74.55;45066.22;4896655;29;20485;-56
2023/07/04 03:18:55;;;;;;;22.77;11.10;;;;;;;-143.84;74.21;45064.31;4896108;29;20501;-56
2023/07/04 03:21:22;;;;;;;10.43;9.33;;;;;;;-143.84;73.93;45066.22;4896428;29;20510;-57
2023/07/04 03:23:49;;;;;;;10.80;9.63;;;;;;;-143.84;73.49;45060.50;4896215;29;20448;-57
2023/07/04 03:26:16;;;;;;;11.97;10.77;;;;;;;-143.84;73.32;45068.13;4896231;29;20477;-57
2023/07/04 03:28:45;;;;;;;15.20;10.63;;;;;;;-143.84;72.95;45070.00;4895873;29;20534;-57
2023/07/04 03:31:12;;;;;;;14.53;9.70;;;;;;;-143.84;72.58;45052.88;4895826;29;20449;-57
2023/07/04 03:33:39;;;;;;;18.63;10.87;;;;;;;-143.84;72.18;45068.13;4895544;29;20495;-57
2023/07/04 03:36:07;;;;;;;14.23;10.00;;;;;;;-143.84;71.79;45052.88;4895904;29;20451;-57
2023/07/04 03:38:34;;;;;;;11.57;10.30;;;;;;;-143.84;70.39;45012.88;4895742;29;20463;-57
2023/07/04 03:41:01;;;;;;;12.00;10.50;;;;;;;-143.84;64.82;45016.69;4895547;29;20792;-57
2023/07/04 03:43:28;;;;;;;12.10;9.77;;;;;;;-143.84;61.52;45018.59;4895546;29;20469;-57
2023/07/04 03:45:57;;;;;;;10.70;8.77;;;;;;;-143.84;58.57;45026.22;4895507;29;20875;-57
2023/07/04 03:48:24;;;;;;;10.50;9.00;;;;;;;-143.84;56.57;44988.13;4895394;29;20454;-57
2023/07/04 03:50:51;;;;;;;11.03;8.80;;;;;;;-143.84;55.83;45012.88;4895133;29;20458;-57
2023/07/04 03:53:18;;;;;;;10.70;9.70;;;;;;;-143.84;53.49;44978.63;4895297;29;20544;-57
2023/07/04 03:55:45;;;;;;;14.47;9.10;;;;;;;-143.84;51.48;44972.91;4895370;29;20515;-57
2023/07/04 03:58:12;;;;;;;14.70;9.40;;;;;;;-143.84;50.16;44965.28;4895499;29;20984;-57
2023/07/04 04:00:39;;;;;;;9.63;8.50;;;;;;;-143.84;50.91;44971.00;4895399;29;20449;-57
2023/07/04 04:03:08;;;;;;;13.40;8.53;;;;;;;-143.84;50.79;44944.34;4895471;29;20531;-57
2023/07/04 04:05:35;;;;;;;9.67;8.67;;;;;;;-143.84;49.82;44938.63;4895174;29;20457;-57
2023/07/04 04:08:02;;;;;;;12.93;8.67;;;;;;;-143.84;49.03;44976.72;4895075;29;20509;-57
2023/07/04 04:10:29;;;;;;;13.77;8.80;;;;;;;-143.84;48.90;44965.28;4895323;29;20453;-57
2023/07/04 04:12:57;;;;;;;14.33;8.97;;;;;;;-143.84;48.73;44951.97;4894910;29;20454;-57
2023/07/04 04:15:24;;;;;;;10.37;9.37;;;;;;;-143.84;48.71;44957.66;4895135;29;20509;-57
2023/07/04 04:17:51;;;;;;;9.93;8.80;;;;;;;-143.84;48.74;44972.91;4895624;29;20568;-57
2023/07/04 04:20:19;;;;;;;10.53;8.43;;;;;;;-143.84;48.57;44951.97;4895606;29;20509;-57
2023/07/04 04:22:48;;;;;;;9.70;8.70;;;;;;;-143.84;49.07;44942.44;4894314;29;20874;-57
2023/07/04 04:25:17;;;;;;;9.37;8.07;;;;;;;-143.84;48.98;44953.88;4894942;29;20450;-57
2023/07/04 04:27:46;;;;;;;9.53;8.63;;;;;;;-143.84;49.88;44951.97;4894907;29;20458;-57
2023/07/04 04:30:13;;;;;;;10.13;7.27;;;;;;;-143.84;52.51;44929.09;4894756;29;20453;-57
2023/07/04 04:32:41;;;;;;;9.67;8.47;;;;;;;-143.84;53.56;44946.25;4894678;29;20454;-57
2023/07/04 04:35:10;;;;;;;8.70;7.80;;;;;;;-143.84;51.87;44946.25;4894801;29;20643;-57
2023/07/04 04:37:38;;;;;;;8.57;7.87;;;;;;;-143.84;49.57;44911.97;4894938;29;20520;-57
2023/07/04 04:40:06;;;;;;;9.60;8.23;;;;;;;-143.84;49.62;44927.19;4894703;29;21004;-57
2023/07/04 04:42:34;;;;;;;11.17;8.50;;;;;;;-143.84;48.60;44902.44;4894750;29;20446;-57
2023/07/04 04:45:02;;;;;;;11.50;8.70;;;;;;;-143.84;47.86;44929.09;4894648;29;20445;-57
2023/07/04 04:47:33;;;;;;;10.07;8.90;;;;;;;-143.84;48.43;44931.00;4894405;29;20442;-57
2023/07/04 04:50:00;;;;;;;10.17;9.27;;;;;;;-143.84;49.11;44923.41;4894143;29;21021;-57
2023/07/04 04:52:29;;;;;;;14.10;9.17;;;;;;;-143.84;49.90;44892.94;4899585;29;20488;-57
2023/07/04 04:54:57;;;;;;;10.17;8.93;;;;;;;-143.84;49.46;44921.50;4901575;29;20473;-57
2023/07/04 04:57:24;;;;;;;9.33;8.40;;;;;;;-143.84;49.64;44927.19;4904223;29;20524;-57
2023/07/04 04:59:52;;;;;;;8.80;7.87;;;;;;;-143.84;48.79;44932.91;4908102;29;20515;-57
2023/07/04 05:02:19;;;;;;;16.93;10.07;;;;;;;-143.84;48.83;44936.72;4913547;29;20529;-57
2023/07/04 05:04:46;;;;;;;9.40;7.90;;;;;;;-143.84;49.37;44925.31;4913378;29;20449;-57
2023/07/04 05:07:13;;;;;;;12.60;8.13;;;;;;;-143.84;50.98;44904.34;4913354;29;20451;-56
2023/07/04 05:09:40;;;;;;;13.53;9.60;;;;;;;-143.84;52.92;44919.59;4913739;29;21031;-57
2023/07/04 05:12:09;;;;;;;11.53;8.00;;;;;;;-143.84;54.89;44927.19;4913550;29;20495;-56
2023/07/04 05:14:37;;;;;;;11.00;7.80;;;;;;;-143.84;56.21;44961.47;4912644;29;20506;-56
2023/07/04 05:17:04;;;;;;;9.00;8.10;;;;;;;-143.84;57.19;44929.09;4912917;29;20453;-56
2023/07/04 05:19:31;;;;;;;13.20;8.63;;;;;;;-143.84;58.90;44942.44;4911660;29;20524;-56
2023/07/04 05:21:59;;;;;;;9.40;8.50;;;;;;;-143.84;59.70;44971.00;4900395;29;20448;-56
2023/07/04 05:24:26;;;;;;;11.03;9.90;;;;;;;-143.84;60.23;44976.72;4912961;29;20504;-57
2023/07/04 05:26:53;;;;;;;10.27;9.20;;;;;;;-143.84;61.38;44957.66;4913289;29;20449;-56
2023/07/04 05:29:22;;;;;;;11.70;9.87;;;;;;;-143.84;61.40;44927.19;4912899;29;20445;-56
2023/07/04 05:31:49;;;;;;;11.83;9.37;;;;;;;-143.84;61.52;44942.44;4912748;29;20532;-56
2023/07/04 05:34:16;;;;;;;10.37;8.50;;;;;;;-143.84;61.03;44911.97;4912244;29;20544;-56
2023/07/04 05:36:43;;;;;;;17.13;9.13;;;;;;;-143.84;58.22;44957.66;4912723;29;20512;-57
2023/07/04 05:39:10;;;;;;;14.83;9.30;;;;;;;-143.84;57.75;44934.81;4912599;29;20552;-57
2023/07/04 05:41:38;;;;;;;14.23;8.50;;;;;;;-143.84;56.03;44917.69;4912902;29;20445;-56
2023/07/04 05:44:07;;;;;;;10.17;9.17;;;;;;;-143.84;56.88;44906.25;4912906;29;20834;-56
2023/07/04 05:46:37;;;;;;;10.20;9.20;;;;;;;-143.84;56.18;44925.31;4912711;29;20532;-56
2023/07/04 05:49:05;;;;;;;8.50;7.73;;;;;;;-143.84;53.83;44934.81;4912925;29;20457;-56
2023/07/04 05:51:32;;;;;;;12.93;8.77;;;;;;;-143.84;52.10;44904.34;4912625;29;20467;-57
2023/07/04 05:53:59;;;;;;;8.53;7.70;;;;;;;-143.84;50.02;44911.97;4912590;29;20484;-56
2023/07/04 05:56:28;;;;;;;8.30;7.50;;;;;;;-143.84;48.63;44911.97;4912749;29;20904;-56
2023/07/04 05:58:57;;;;;;;8.00;7.30;;;;;;;-143.84;47.26;44881.50;4912747;29;20488;-57
2023/07/04 06:01:26;;;;;;;7.90;7.10;;;;;;;-143.84;46.22;44925.31;4912652;29;20826;-57
2023/07/04 06:03:56;;;;;;;7.80;6.37;;;;;;;-143.84;46.62;44887.22;4912656;29;21034;-57
2023/07/04 06:06:26;;;;;;;8.00;7.10;;;;;;;-143.84;44.30;44891.03;4912705;29;20478;-57
2023/07/04 06:08:55;;;;;;;7.77;7.13;;;;;;;-143.84;43.54;44887.22;4912510;29;20445;-56
2023/07/04 06:11:26;;;;;;;7.90;6.37;;;;;;;-143.84;44.05;44911.97;4912337;29;20528;-56
2023/07/04 06:13:53;;;;;;;8.57;7.27;;;;;;;-143.84;43.70;44902.44;4912157;29;20847;-56
2023/07/04 06:16:21;;;;;;;10.40;6.90;;;;;;;-143.84;44.15;44864.38;4912868;29;20483;-57
2023/07/04 06:18:48;;;;;;;15.30;6.07;;;;;;;-143.84;44.68;44910.06;4912278;29;20445;-57
2023/07/04 06:21:19;;;;;;;10.27;6.83;;;;;;;-143.84;42.96;44864.38;4912246;29;20444;-57
2023/07/04 06:23:46;;;;;;;9.23;5.83;;;;;;;-143.84;40.43;44862.47;4912090;29;20469;-56
2023/07/04 06:26:15;;;;;;;8.77;6.47;;;;;;;-143.84;41.21;44841.53;4912395;29;20445;-56
2023/07/04 06:28:43;;;;;;;7.70;5.90;;;;;;;-143.84;42.45;44847.22;4912758;29;20441;-57
2023/07/04 06:31:12;;;;;;;8.77;6.57;;;;;;;-143.84;41.96;44858.66;4912733;29;20516;-56
2023/07/04 06:33:40;;;;;;;7.67;6.97;;;;;;;-143.84;42.56;44858.66;4912957;29;20448;-55
2023/07/04 06:36:09;;;;;;;6.93;6.23;;;;;;;-143.84;43.99;44847.22;4912659;29;20461;-55
2023/07/04 06:38:38;;;;;;;6.90;6.30;;;;;;;-143.84;43.52;44866.28;4912398;29;20931;-55
2023/07/04 06:41:07;;;;;;;7.43;6.73;;;;;;;-143.84;43.30;44854.84;4912158;29;20552;-54
2023/07/04 06:43:35;;;;;;;6.93;6.40;;;;;;;-143.84;42.84;44868.19;4912306;29;20452;-55
2023/07/04 06:46:02;;;;;;;8.10;7.10;;;;;;;-143.84;43.28;44862.47;4913193;29;20824;-55
2023/07/04 06:48:31;;;;;;;11.00;6.83;;;;;;;-143.84;44.04;44875.78;4916073;29;20496;-55
2023/07/04 06:50:59;;;;;;;10.33;6.77;;;;;;;-143.84;44.97;44883.41;4915668;29;20510;-55
2023/07/04 06:53:26;;;;;;;7.60;6.90;;;;;;;-143.84;44.58;44881.50;4915675;29;20452;-55
2023/07/04 06:56:03;;;;;;;10.10;6.50;;;;;;;-143.84;44.57;44871.97;4915669;29;20488;-54
2023/07/04 06:58:30;;;;;;;9.20;7.30;;;;;;;-143.84;44.16;44885.31;4916009;29;20440;-54
2023/07/04 07:00:58;;;;;;;8.87;7.40;;;;;;;-143.84;45.45;44870.09;4915844;29;21226;-54
2023/07/04 07:03:25;;;;;;;9.97;7.67;;;;;;;-143.84;44.75;44885.31;4915344;29;20456;-55
2023/07/04 07:05:52;;;;;;;9.37;6.70;;;;;;;-143.84;45.78;44881.50;4915698;29;20529;-55
2023/07/04 07:08:19;;;;;;;9.27;8.30;;;;;;;-143.84;43.62;44881.50;4915512;29;20454;-54
2023/07/04 07:10:56;;;;;;;12.80;6.83;;;;;;;-143.84;42.91;44858.66;4915473;29;20483;-54
2023/07/04 07:13:23;;;;;;;8.60;7.40;;;;;;;-143.84;42.91;44906.25;4915126;29;20527;-55
2023/07/04 07:15:50;;;;;;;12.90;8.27;;;;;;;-143.84;43.19;44873.88;4915108;29;20526;-54
2023/07/04 07:18:17;;;;;;;8.47;7.10;;;;;;;-143.84;43.35;44847.22;4915239;29;20452;-55
2023/07/04 07:20:44;;;;;;;7.57;6.87;;;;;;;-143.84;42.28;44852.94;4915053;29;21152;-55
2023/07/04 07:23:12;;;;;;;9.00;6.93;;;;;;;-143.84;40.83;44868.19;4915213;29;20453;-55
2023/07/04 07:25:39;;;;;;;7.80;7.00;;;;;;;-143.84;41.25;44854.84;4915001;29;20449;-55
2023/07/04 07:28:08;;;;;;;10.23;8.23;;;;;;;-143.84;40.92;44879.59;4915302;29;20855;-55
2023/07/04 07:30:35;;;;;;;8.13;7.43;;;;;;;-143.84;42.45;44875.78;4914963;29;20524;-55
2023/07/04 07:33:02;;;;;;;13.37;7.30;;;;;;;-143.84;40.71;44864.38;4914914;29;21164;-54
2023/07/04 07:35:31;;;;;;;8.50;7.20;;;;;;;-143.84;40.72;44879.59;4914859;29;20488;-55
2023/07/04 07:37:58;;;;;;;8.17;7.13;;;;;;;-143.84;40.46;44868.19;4914534;29;20460;-55
2023/07/04 07:40:26;;;;;;;9.13;7.30;;;;;;;-143.84;40.26;44870.09;4914807;29;20441;-54
2023/07/04 07:42:54;;;;;;;8.17;7.37;;;;;;;-143.84;40.98;44883.41;4914735;29;20448;-55
2023/07/04 07:45:23;;;;;;;7.53;6.83;;;;;;;-143.84;39.45;44879.59;4914653;29;20444;-54
2023/07/04 07:47:50;;;;;;;9.80;7.07;;;;;;;-143.84;40.36;44875.78;4914415;29;20523;-55
2023/07/04 07:50:17;;;;;;;8.97;7.67;;;;;;;-143.84;40.61;44879.59;4914387;29;20449;-54
2023/07/04 07:52:44;;;;;;;7.80;6.93;;;;;;;-143.84;41.00;44862.47;4914065;29;20497;-55
2023/07/04 07:55:11;;;;;;;10.43;7.13;;;;;;;-143.84;41.03;44841.53;4914459;29;20831;-54
2023/07/04 07:57:39;;;;;;;9.27;7.47;;;;;;;-143.84;40.31;44881.50;4914440;29;20511;-55
2023/07/04 08:00:07;;;;;;;9.07;7.30;;;;;;;-143.84;40.85;44871.97;4914539;29;21344;-53
2023/07/04 08:02:36;;;;;;;7.10;6.50;;;;;;;-143.84;39.86;44892.94;4914298;29;20480;-53
2023/07/04 08:05:03;;;;;;;8.47;7.50;;;;;;;-143.84;40.37;44883.41;4914463;29;20970;-53
2023/07/04 08:07:30;;;;;;;8.77;7.87;;;;;;;-143.84;40.64;44841.53;4914186;29;20452;-53
2023/07/04 08:09:59;;;;;;;9.33;6.93;;;;;;;-143.84;39.91;44862.47;4913869;29;20488;-53
2023/07/04 08:12:26;;;;;;;7.53;6.83;;;;;;;-143.84;39.48;44870.09;4913603;29;20449;-53
2023/07/04 08:14:53;;;;;;;11.53;6.80;;;;;;;-143.84;39.58;44892.94;4913572;29;20877;-53
2023/07/04 08:17:21;;;;;;;14.80;6.90;;;;;;;-143.84;39.23;44873.88;4913707;29;20441;-53
2023/07/04 08:19:50;;;;;;;10.73;7.10;;;;;;;-143.84;39.95;44892.94;4913250;29;20453;-53
2023/07/04 08:22:17;;;;;;;8.43;6.67;;;;;;;-143.84;40.95;44854.84;4913456;29;20846;-53
2023/07/04 08:24:44;;;;;;;8.17;6.70;;;;;;;-143.84;40.86;44860.56;4913817;29;20500;-53
2023/07/04 08:27:11;;;;;;;15.53;7.40;;;;;;;-143.84;39.91;44864.38;4913933;29;20441;-53
2023/07/04 08:29:38;;;;;;;10.27;7.47;;;;;;;-143.84;39.11;44870.09;4913753;29;20484;-53
2023/07/04 08:32:07;;;;;;;9.57;6.40;;;;;;;-143.84;38.93;44873.88;4913870;29;20492;-53
2023/07/04 08:34:34;;;;;;;7.27;6.53;;;;;;;-143.84;40.59;44885.31;4913702;29;20449;-53
2023/07/04 08:37:02;;;;;;;7.07;6.37;;;;;;;-143.84;39.29;44864.38;4913680;29;20440;-53
2023/07/04 08:39:29;;;;;;;7.80;6.30;;;;;;;-143.84;40.07;44854.84;4913822;29;20473;-53
2023/07/04 08:42:00;;;;;;;10.63;6.67;;;;;;;-143.84;40.37;44849.13;4913764;29;20445;-53
2023/07/04 08:44:34;;;;;;;7.03;6.33;;;;;;;-143.84;40.71;44868.19;4912536;29;20497;-53
2023/07/04 08:47:02;;;;;;;7.10;6.40;;;;;;;-143.84;39.77;44864.38;4913350;29;20824;-53
2023/07/04 08:49:35;;;;;;;8.30;5.97;;;;;;;-143.84;40.50;44864.38;4913785;29;20467;-53
2023/07/04 08:52:09;;;;;;;7.00;6.40;;;;;;;-143.84;41.14;44873.88;4913415;29;20436;-53
2023/07/04 08:54:37;;;;;;;6.83;6.27;;;;;;;-143.84;42.12;44870.09;4913618;29;20449;-53
2023/07/04 08:57:18;;;;;;;8.50;7.60;;;;;;;-143.84;42.91;44824.38;4913465;29;20452;-53
2023/07/04 08:59:48;;;;;;;7.37;6.70;;;;;;;-143.84;42.31;44851.03;4912816;29;20459;-53
2023/07/04 09:02:40;;;;;;;7.43;6.60;;;;;;;-143.84;41.65;44870.09;4913286;29;20441;-53
2023/07/04 09:05:16;;;;;;;8.47;7.23;;;;;;;-143.84;43.01;44864.38;4913173;29;21007;-53
2023/07/04 09:07:54;;;;;;;15.37;7.50;;;;;;;-143.84;43.96;44889.13;4913299;29;20471;-53
2023/07/04 09:10:32;;;;;;;8.50;7.67;;;;;;;-143.84;44.90;44908.16;4912998;29;20512;-53
2023/07/04 09:13:00;;;;;;;7.70;6.90;;;;;;;-143.84;45.27;44889.13;4912967;29;20440;-53
2023/07/04 09:15:32;;;;;;;8.00;7.20;;;;;;;-143.84;44.51;44864.38;4912824;29;20496;-53
2023/07/04 09:18:07;;;;;;;9.03;8.23;;;;;;;-143.84;45.68;44881.50;4913114;29;20445;-53
2023/07/04 09:20:39;;;;;;;10.43;7.83;;;;;;;-143.84;45.50;44891.03;4913047;29;20449;-55
2023/07/04 09:23:17;;;;;;;8.10;7.40;;;;;;;-143.84;46.89;44902.44;4912977;29;20504;-55
2023/07/04 09:25:44;;;;;;;13.77;9.20;;;;;;;-143.84;48.71;44891.03;4913114;29;20452;-55
2023/07/04 09:28:11;;;;;;;9.07;8.03;;;;;;;-143.84;48.46;44873.88;4913191;29;20449;-55
2023/07/04 09:30:39;;;;;;;11.00;8.40;;;;;;;-143.84;46.07;44879.59;4912837;29;20528;-55
2023/07/04 09:33:06;;;;;;;8.70;7.70;;;;;;;-143.84;46.41;44900.53;4912868;29;20453;-55
2023/07/04 09:35:33;;;;;;;9.07;7.07;;;;;;;-143.84;46.01;44862.47;4912705;29;20535;-55
2023/07/04 09:38:02;;;;;;;9.43;8.53;;;;;;;-143.84;45.92;44894.84;4912562;29;20484;-55
2023/07/04 09:40:43;;;;;;;10.20;7.60;;;;;;;-143.84;45.74;44866.28;4912555;29;20861;-55
2023/07/04 09:43:11;;;;;;;17.50;8.70;;;;;;;-143.84;44.61;44854.84;4912309;29;20559;-55
2023/07/04 09:45:39;;;;;;;8.60;7.80;;;;;;;-143.84;44.61;44904.34;4912664;29;20523;-55
2023/07/04 09:48:10;;;;;;;8.63;7.73;;;;;;;-143.84;44.16;44911.97;4912527;29;20456;-55
2023/07/04 09:50:38;;;;;;;10.60;8.47;;;;;;;-143.84;44.39;44856.75;4912691;29;20489;-55
2023/07/04 09:53:09;;;;;;;9.17;7.20;;;;;;;-143.84;44.41;44889.13;4912920;29;20453;-55
2023/07/04 09:55:38;;;;;;;10.77;7.77;;;;;;;-143.84;44.75;44862.47;4912652;29;20591;-55
2023/07/04 09:58:19;;;;;;;9.03;7.23;;;;;;;-143.84;45.57;44891.03;4912426;29;20564;-55
2023/07/04 10:01:00;;;;;;;12.23;7.63;;;;;;;-143.84;43.31;44847.22;4912767;29;20520;-55
2023/07/04 10:03:27;;;;;;;10.73;8.20;;;;;;;-143.84;45.14;44881.50;4912730;29;20479;-55
2023/07/04 10:05:55;;;;;;;9.70;8.33;;;;;;;-143.84;44.31;44858.66;4912707;29;20467;-55
2023/07/04 10:08:22;;;;;;;8.03;7.27;;;;;;;-143.84;46.24;44860.56;4912428;29;20962;-55
2023/07/04 10:10:53;;;;;;;8.50;7.60;;;;;;;-143.84;45.32;44875.78;4912508;29;20453;-55
2023/07/04 10:13:27;;;;;;;9.63;8.63;;;;;;;-143.84;46.80;44870.09;4912280;29;20508;-55
2023/07/04 10:15:54;;;;;;;12.93;8.10;;;;;;;-143.84;45.93;44860.56;4912465;29;20535;-55
2023/07/04 10:18:26;;;;;;;10.43;7.40;;;;;;;-143.84;47.76;44866.28;4912478;29;21326;-55
2023/07/04 10:20:55;;;;;;;9.87;8.50;;;;;;;-143.84;45.76;44871.97;4913500;29;20915;-55
2023/07/04 10:23:23;;;;;;;8.43;6.97;;;;;;;-143.84;45.41;44887.22;4916070;29;20440;-55
2023/07/04 10:25:52;;;;;;;8.63;7.70;;;;;;;-143.84;45.69;44904.34;4916165;29;20516;-55
2023/07/04 10:28:24;;;;;;;8.70;7.23;;;;;;;-143.84;45.83;44854.84;4915860;29;21104;-55
2023/07/04 10:30:56;;;;;;;8.13;7.33;;;;;;;-143.84;44.47;44866.28;4898200;29;20452;-55
2023/07/04 10:33:29;;;;;;;13.23;8.33;;;;;;;-143.84;45.57;44892.94;4901881;29;20465;-55
2023/07/04 10:35:57;;;;;;;9.50;8.50;;;;;;;-143.84;45.10;44892.94;4895115;29;21308;-55
2023/07/04 10:38:38;;;;;;;10.43;8.33;;;;;;;-143.84;48.06;44915.78;4896648;29;20453;-55
2023/07/04 10:41:17;;;;;;;12.27;8.50;;;;;;;-143.84;49.54;44898.66;4900204;29;20600;-55
2023/07/04 10:43:52;;;;;;;10.30;7.77;;;;;;;-143.84;45.98;44904.34;4902855;29;20449;-55
2023/07/04 10:46:24;;;;;;;14.90;8.53;;;;;;;-143.84;48.64;44900.53;4894114;29;20591;-55
2023/07/04 10:48:57;;;;;;;8.87;7.97;;;;;;;-143.84;46.21;44915.78;4894565;29;20467;-55
2023/07/04 10:51:30;;;;;;;8.33;7.53;;;;;;;-143.84;47.17;44902.44;4902275;29;20468;-55
2023/07/04 10:53:57;;;;;;;10.27;7.97;;;;;;;-143.84;45.81;44887.22;4903008;29;20472;-55
2023/07/04 10:56:29;;;;;;;15.03;9.13;;;;;;;-143.84;48.07;44908.16;4895206;29;20563;-55
2023/07/04 10:59:05;;;;;;;16.10;9.00;;;;;;;-143.84;48.03;44891.03;4898834;29;20483;-55
2023/07/04 11:01:37;;;;;;;9.90;7.93;;;;;;;-143.84;47.08;44904.34;4900414;29;20459;-55
2023/07/04 11:04:11;;;;;;;10.33;8.10;;;;;;;-143.84;46.00;44934.81;4898226;29;21006;-55
2023/07/04 11:06:42;;;;;;;9.17;8.27;;;;;;;-143.84;48.34;44940.53;4898970;29;20458;-55
2023/07/04 11:09:13;;;;;;;10.17;7.50;;;;;;;-143.84;48.58;44915.78;4897321;29;20485;-55
2023/07/04 11:11:44;;;;;;;11.53;8.60;;;;;;;-143.84;47.26;44913.88;4914359;29;21037;-55
2023/07/04 11:14:17;;;;;;;13.37;9.00;;;;;;;-143.84;49.41;44904.34;4915187;29;20496;-55
2023/07/04 11:16:45;;;;;;;10.37;8.07;;;;;;;-143.84;47.74;44911.97;4915431;29;20567;-55